createdAt,value
2022-09-27T00:01:07.839Z,79.12
2022-09-27T00:03:34.495Z,79.28
2022-09-27T00:06:09.017Z,79.43
2022-09-27T00:08:37.028Z,79.99
2022-09-27T00:11:06.345Z,79.75
2022-09-27T00:13:33.427Z,80.48
2022-09-27T00:16:05.362Z,80.20
2022-09-27T00:18:33.514Z,79.87
2022-09-27T00:21:11.371Z,80.15
2022-09-27T00:23:39.308Z,80.16
2022-09-27T00:26:08.129Z,80.19
2022-09-27T00:28:34.930Z,79.61
2022-09-27T00:31:01.987Z,79.87
2022-09-27T00:33:28.676Z,79.67
2022-09-27T00:35:55.376Z,79.56
2022-09-27T00:38:22.007Z,79.78
2022-09-27T00:40:48.677Z,79.35
2022-09-27T00:43:22.444Z,79.49
2022-09-27T00:46:03.402Z,79.20
2022-09-27T00:48:33.031Z,79.11
2022-09-27T00:51:03.517Z,78.99
2022-09-27T00:53:37.826Z,78.87
2022-09-27T00:56:12.639Z,78.48
2022-09-27T00:58:45.085Z,78.32
2022-09-27T01:01:14.131Z,77.93
2022-09-27T01:03:45.215Z,78.04
2022-09-27T01:06:12.367Z,77.36
2022-09-27T01:08:39.329Z,77.49
2022-09-27T01:11:09.005Z,77.31
2022-09-27T01:13:49.194Z,77.05
2022-09-27T01:16:26.632Z,76.83
2022-09-27T01:19:16.606Z,76.84
2022-09-27T01:22:02.136Z,76.56
2022-09-27T01:24:48.909Z,76.33
2022-09-27T01:27:41.407Z,76.10
2022-09-27T01:30:29.662Z,75.97
2022-09-27T01:33:33.118Z,75.68
2022-09-27T01:36:32.112Z,75.57
2022-09-27T01:39:21.311Z,75.32
2022-09-27T01:42:22.967Z,75.48
2022-09-27T01:45:03.615Z,75.44
2022-09-27T01:47:45.436Z,75.00
2022-09-27T01:50:47.141Z,74.83
2022-09-27T01:53:34.287Z,74.96
2022-09-27T01:56:40.932Z,74.49
2022-09-27T01:59:21.077Z,74.51
2022-09-27T02:02:00.256Z,74.44
2022-09-27T02:04:38.809Z,74.32
2022-09-27T02:07:23.856Z,74.12
2022-09-27T02:09:59.754Z,73.78
2022-09-27T02:12:46.220Z,73.72
2022-09-27T02:15:15.214Z,73.96
2022-09-27T02:17:53.264Z,73.81
2022-09-27T02:20:30.162Z,73.87
2022-09-27T02:23:21.158Z,73.62
2022-09-27T02:26:02.747Z,73.60
2022-09-27T02:28:45.770Z,73.31
2022-09-27T02:31:20.226Z,73.12
2022-09-27T02:33:52.423Z,72.78
2022-09-27T02:36:20.261Z,72.54
2022-09-27T02:38:47.223Z,72.46
2022-09-27T02:41:18.697Z,72.19
2022-09-27T02:43:49.821Z,72.36
2022-09-27T02:46:53.159Z,72.51
2022-09-27T02:49:30.431Z,72.47
2022-09-27T02:52:50.901Z,72.54
2022-09-27T02:55:20.677Z,72.59
2022-09-27T02:58:31.824Z,72.43
2022-09-27T03:01:35.107Z,72.46
2022-09-27T03:04:38.478Z,72.95
2022-09-27T03:07:06.123Z,72.46
2022-09-27T03:09:48.027Z,72.44
2022-09-27T03:12:22.451Z,72.40
2022-09-27T03:14:49.707Z,72.32
2022-09-27T03:17:51.592Z,72.13
2022-09-27T03:20:31.453Z,72.30
2022-09-27T03:23:24.334Z,71.95
2022-09-27T03:25:51.817Z,71.84
2022-09-27T03:28:19.014Z,72.17
2022-09-27T03:30:46.505Z,72.06
2022-09-27T03:33:22.591Z,71.82
2022-09-27T03:35:57.468Z,71.61
2022-09-27T03:38:24.173Z,71.75
2022-09-27T03:40:51.113Z,71.54
2022-09-27T03:43:17.801Z,71.59
2022-09-27T03:45:47.216Z,71.58
2022-09-27T03:48:14.329Z,71.50
2022-09-27T03:50:41.216Z,71.50
2022-09-27T03:53:08.158Z,71.46
2022-09-27T03:55:35.651Z,71.22
2022-09-27T03:58:02.742Z,71.33
2022-09-27T04:00:32.687Z,71.41
2022-09-27T04:03:00.250Z,71.25
2022-09-27T04:05:28.806Z,71.17
2022-09-27T04:08:02.427Z,71.29
2022-09-27T04:10:31.686Z,71.18
2022-09-27T04:12:58.692Z,71.20
2022-09-27T04:15:29.218Z,71.19
2022-09-27T04:18:14.691Z,71.27
2022-09-27T04:21:07.231Z,71.25
2022-09-27T04:23:36.529Z,71.39
2022-09-27T04:26:03.698Z,71.33
2022-09-27T04:28:54.537Z,71.25
2022-09-27T04:31:22.297Z,71.04
2022-09-27T04:34:16.369Z,71.07
2022-09-27T04:36:43.139Z,71.00
2022-09-27T04:39:15.131Z,70.99
2022-09-27T04:41:45.015Z,71.73
2022-09-27T04:44:11.905Z,71.45
2022-09-27T04:46:41.327Z,71.04
2022-09-27T04:49:08.125Z,71.02
2022-09-27T04:51:36.341Z,70.43
2022-09-27T04:54:04.800Z,70.20
2022-09-27T04:56:34.869Z,69.95
2022-09-27T04:59:08.289Z,70.11
2022-09-27T05:01:37.115Z,70.29
2022-09-27T05:04:42.286Z,70.58
2022-09-27T05:07:10.112Z,70.73
2022-09-27T05:09:42.413Z,70.58
2022-09-27T05:12:09.269Z,70.70
2022-09-27T05:14:54.927Z,70.62
2022-09-27T05:17:43.773Z,70.86
2022-09-27T05:20:10.772Z,70.41
2022-09-27T05:22:44.088Z,70.39
2022-09-27T05:25:11.447Z,70.25
2022-09-27T05:27:38.927Z,70.33
2022-09-27T05:30:08.015Z,70.36
2022-09-27T05:32:50.677Z,70.46
2022-09-27T05:35:26.418Z,70.66
2022-09-27T05:37:59.261Z,70.67
2022-09-27T05:40:44.670Z,70.37
2022-09-27T05:43:12.125Z,70.36
2022-09-27T05:45:41.076Z,70.49
2022-09-27T05:48:08.264Z,70.67
2022-09-27T05:50:45.708Z,70.67
2022-09-27T05:53:13.403Z,70.55
2022-09-27T05:55:41.291Z,70.62
2022-09-27T05:58:10.293Z,70.59
2022-09-27T06:00:48.344Z,70.65
2022-09-27T06:03:51.373Z,70.69
2022-09-27T06:06:38.417Z,70.67
2022-09-27T06:09:11.058Z,70.21
2022-09-27T06:11:40.646Z,70.37
2022-09-27T06:14:11.685Z,70.54
2022-09-27T06:16:51.009Z,70.40
2022-09-27T06:19:17.787Z,70.71
2022-09-27T06:21:44.440Z,70.84
2022-09-27T06:24:12.661Z,70.81
2022-09-27T06:26:39.552Z,71.15
2022-09-27T06:29:30.312Z,71.14
2022-09-27T06:32:01.132Z,71.46
2022-09-27T06:34:41.699Z,71.52
2022-09-27T06:37:08.390Z,71.98
2022-09-27T06:39:35.226Z,72.00
2022-09-27T06:42:31.116Z,72.19
2022-09-27T06:45:10.744Z,72.48
2022-09-27T06:47:57.043Z,72.35
2022-09-27T06:50:31.112Z,72.55
2022-09-27T06:52:57.852Z,72.89
2022-09-27T06:55:25.342Z,73.03
2022-09-27T06:58:15.330Z,73.10
2022-09-27T07:00:54.371Z,73.50
2022-09-27T07:03:43.238Z,73.60
2022-09-27T07:06:24.286Z,73.59
2022-09-27T07:09:08.546Z,73.82
2022-09-27T07:11:36.758Z,73.97
2022-09-27T07:14:08.175Z,73.99
2022-09-27T07:16:34.990Z,73.96
2022-09-27T07:19:05.521Z,73.86
2022-09-27T07:21:33.238Z,73.73
2022-09-27T07:24:00.495Z,73.81
2022-09-27T07:26:27.721Z,73.57
2022-09-27T07:28:54.805Z,73.26
2022-09-27T07:31:22.598Z,73.42
2022-09-27T07:33:49.262Z,73.43
2022-09-27T07:36:16.012Z,73.13
2022-09-27T07:38:44.739Z,73.30
2022-09-27T07:41:14.135Z,72.95
2022-09-27T07:43:45.096Z,72.89
2022-09-27T07:46:13.464Z,72.39
2022-09-27T07:48:51.699Z,72.52
2022-09-27T07:51:37.021Z,72.21
2022-09-27T07:54:31.422Z,72.23
2022-09-27T07:57:16.642Z,72.10
2022-09-27T07:59:47.698Z,71.95
2022-09-27T08:02:18.337Z,72.03
2022-09-27T08:04:49.103Z,72.00
2022-09-27T08:07:16.363Z,72.05
2022-09-27T08:09:45.896Z,72.17
2022-09-27T08:12:13.274Z,72.39
2022-09-27T08:14:45.082Z,72.43
2022-09-27T08:17:19.386Z,73.25
2022-09-27T08:20:06.943Z,73.84
2022-09-27T08:23:06.182Z,74.49
2022-09-27T08:25:40.094Z,74.29
2022-09-27T08:28:27.377Z,74.34
2022-09-27T08:31:00.245Z,74.38
2022-09-27T08:33:31.945Z,74.67
2022-09-27T08:35:59.487Z,74.49
2022-09-27T08:38:26.161Z,74.53
2022-09-27T08:41:20.369Z,74.25
2022-09-27T08:44:04.818Z,73.88
2022-09-27T08:47:08.943Z,73.76
2022-09-27T08:49:38.733Z,73.42
2022-09-27T08:52:13.189Z,73.50
2022-09-27T08:54:40.294Z,73.07
2022-09-27T08:57:16.957Z,73.26
2022-09-27T08:59:55.095Z,73.71
2022-09-27T09:02:27.436Z,75.00
2022-09-27T09:05:03.167Z,75.52
2022-09-27T09:07:48.059Z,75.71
2022-09-27T09:10:45.664Z,74.63
2022-09-27T09:13:41.135Z,74.78
2022-09-27T09:16:08.551Z,75.26
2022-09-27T09:19:01.218Z,75.63
2022-09-27T09:21:54.946Z,75.69
2022-09-27T09:24:37.018Z,76.14
2022-09-27T09:27:33.874Z,76.53
2022-09-27T09:30:13.038Z,76.99
2022-09-27T09:33:08.237Z,77.59
2022-09-27T09:35:39.402Z,77.97
2022-09-27T09:38:18.509Z,77.80
2022-09-27T09:40:52.076Z,78.28
2022-09-27T09:43:31.202Z,78.00
2022-09-27T09:46:10.394Z,78.22
2022-09-27T09:48:42.083Z,78.18
2022-09-27T09:51:19.456Z,78.32
2022-09-27T09:53:51.569Z,78.50
2022-09-27T09:56:22.714Z,78.76
2022-09-27T09:59:32.602Z,78.98
2022-09-27T10:02:15.032Z,79.14
2022-09-27T10:04:41.866Z,79.53
2022-09-27T10:07:08.661Z,79.70
2022-09-27T10:09:36.494Z,80.09
2022-09-27T10:12:22.079Z,80.14
2022-09-27T10:14:51.887Z,79.83
2022-09-27T10:17:25.366Z,79.68
2022-09-27T10:19:54.208Z,79.08
2022-09-27T10:22:25.159Z,78.69
2022-09-27T10:25:08.010Z,78.62
2022-09-27T10:27:56.136Z,78.16
2022-09-27T10:30:33.014Z,77.52
2022-09-27T10:33:07.752Z,77.94
2022-09-27T10:35:45.095Z,77.33
2022-09-27T10:38:20.478Z,77.34
2022-09-27T10:40:53.183Z,76.82
2022-09-27T10:43:29.388Z,76.88
2022-09-27T10:46:23.669Z,77.09
2022-09-27T10:49:26.825Z,75.91
2022-09-27T10:52:06.440Z,75.68
2022-09-27T10:54:37.798Z,75.32
2022-09-27T10:57:23.125Z,75.44
2022-09-27T10:59:56.506Z,75.32
2022-09-27T11:02:35.818Z,75.66
2022-09-27T11:05:15.625Z,75.84
2022-09-27T11:07:55.518Z,76.61
2022-09-27T11:10:37.345Z,77.45
2022-09-27T11:13:12.492Z,77.48
2022-09-27T11:16:07.541Z,77.65
2022-09-27T11:19:04.505Z,78.16
2022-09-27T11:21:40.135Z,78.19
2022-09-27T11:24:32.599Z,77.95
2022-09-27T11:27:33.158Z,78.63
2022-09-27T11:30:09.749Z,78.65
2022-09-27T11:34:02.369Z,78.47
2022-09-27T11:36:57.742Z,79.10
2022-09-27T11:39:51.178Z,79.11
2022-09-27T11:42:33.300Z,79.42
2022-09-27T11:45:56.378Z,79.78
2022-09-27T11:48:27.554Z,79.94
2022-09-27T11:51:18.967Z,80.22
2022-09-27T11:53:51.635Z,79.85
2022-09-27T11:56:29.480Z,80.13
2022-09-27T11:59:04.994Z,79.87
2022-09-27T12:01:50.287Z,79.70
2022-09-27T12:04:44.862Z,80.07
2022-09-27T12:07:25.531Z,79.70
2022-09-27T12:10:00.209Z,79.39
2022-09-27T12:12:31.969Z,79.33
2022-09-27T12:15:07.167Z,78.95
2022-09-27T12:17:43.199Z,79.01
2022-09-27T12:20:24.598Z,78.88
2022-09-27T12:22:59.934Z,78.73
2022-09-27T12:26:03.147Z,78.69
2022-09-27T12:28:54.222Z,78.67
2022-09-27T12:31:30.497Z,78.96
2022-09-27T12:34:19.334Z,78.83
2022-09-27T12:36:56.030Z,79.06
2022-09-27T12:39:41.782Z,79.34
2022-09-27T12:42:32.022Z,78.96
2022-09-27T12:45:01.913Z,78.90
2022-09-27T12:48:07.028Z,79.00
2022-09-27T12:50:46.566Z,78.93
2022-09-27T12:53:23.367Z,78.71
2022-09-27T12:56:17.214Z,78.26
2022-09-27T12:59:02.730Z,77.12
2022-09-27T13:01:59.973Z,77.38
2022-09-27T13:04:38.673Z,76.60
2022-09-27T13:07:17.759Z,76.29
2022-09-27T13:10:01.807Z,76.48
2022-09-27T13:12:32.267Z,75.94
2022-09-27T13:15:15.062Z,76.17
2022-09-27T13:17:42.370Z,76.30
2022-09-27T13:20:31.049Z,76.04
2022-09-27T13:23:00.006Z,75.77
2022-09-27T13:25:55.454Z,75.19
2022-09-27T13:28:48.148Z,75.56
2022-09-27T13:31:59.883Z,75.69
2022-09-27T13:34:41.643Z,76.06
2022-09-27T13:37:28.847Z,76.24
2022-09-27T13:40:15.141Z,75.97
2022-09-27T13:43:11.274Z,76.76
2022-09-27T13:45:56.276Z,76.77
2022-09-27T13:48:43.300Z,76.74
2022-09-27T13:51:16.693Z,76.96
2022-09-27T13:53:55.108Z,77.69
2022-09-27T13:56:37.821Z,77.82
2022-09-27T13:59:13.761Z,78.48
2022-09-27T14:02:16.868Z,78.75
2022-09-27T14:04:51.508Z,79.29
2022-09-27T14:07:26.801Z,79.22
2022-09-27T14:10:00.473Z,79.62
2022-09-27T14:12:36.689Z,79.86
2022-09-27T14:15:14.025Z,80.29
2022-09-27T14:17:45.980Z,80.11
2022-09-27T14:20:52.636Z,80.12
2022-09-27T14:23:39.498Z,79.96
2022-09-27T14:26:06.564Z,79.94
2022-09-27T14:28:41.683Z,79.65
2022-09-27T14:31:31.378Z,79.95
2022-09-27T14:34:13.142Z,79.73
2022-09-27T14:37:04.006Z,79.55
2022-09-27T14:39:37.948Z,79.55
2022-09-27T14:42:28.511Z,79.73
2022-09-27T14:45:01.492Z,79.99
2022-09-27T14:47:32.274Z,80.20
2022-09-27T14:50:16.948Z,79.99
2022-09-27T14:52:43.726Z,79.94
2022-09-27T14:55:19.113Z,80.22
2022-09-27T14:57:56.687Z,80.24
2022-09-27T15:00:26.247Z,80.08
2022-09-27T15:02:55.885Z,80.12
2022-09-27T15:05:27.305Z,80.03
2022-09-27T15:07:58.458Z,80.57
2022-09-27T15:10:27.829Z,80.56
2022-09-27T15:13:01.149Z,80.23
2022-09-27T15:15:33.850Z,80.25
2022-09-27T15:18:01.826Z,79.92
2022-09-27T15:20:32.332Z,79.79
2022-09-27T15:23:03.659Z,79.80
2022-09-27T15:25:36.926Z,79.76
2022-09-27T15:28:20.127Z,79.75
2022-09-27T15:30:57.335Z,79.49
2022-09-27T15:33:27.209Z,79.45
2022-09-27T15:35:56.275Z,79.50
2022-09-27T15:38:25.479Z,79.30
2022-09-27T15:40:52.123Z,79.25
2022-09-27T15:51:51.677Z,78.58
2022-09-27T15:54:22.371Z,78.44
2022-09-27T15:56:55.038Z,78.17
2022-09-27T15:59:27.837Z,78.05
2022-09-27T16:01:56.792Z,78.21
2022-09-27T16:04:23.552Z,78.57
2022-09-27T16:06:50.403Z,78.35
2022-09-27T16:09:18.930Z,77.93
2022-09-27T16:11:47.573Z,77.98
2022-09-27T16:14:18.290Z,78.08
2022-09-27T16:16:47.636Z,78.37
2022-09-27T16:19:14.311Z,78.51
2022-09-27T16:21:42.912Z,78.30
2022-09-27T16:24:12.638Z,78.35
2022-09-27T16:26:41.087Z,78.22
2022-09-27T16:29:13.608Z,78.15
2022-09-27T16:31:41.295Z,77.81
2022-09-27T16:34:13.769Z,78.16
2022-09-27T16:36:41.873Z,78.18
2022-09-27T16:39:12.767Z,77.95
2022-09-27T16:41:43.501Z,78.49
2022-09-27T16:44:12.922Z,78.66
2022-09-27T16:46:41.505Z,78.50
2022-09-27T16:49:28.790Z,78.48
2022-09-27T16:52:01.356Z,78.77
2022-09-27T16:54:29.408Z,79.27
2022-09-27T16:56:57.750Z,79.27
2022-09-27T16:59:27.716Z,79.44
2022-09-27T17:01:58.078Z,79.53
2022-09-27T17:04:27.603Z,79.36
2022-09-27T17:06:56.369Z,79.58
2022-09-27T17:09:23.163Z,79.69
2022-09-27T17:11:50.252Z,79.42
2022-09-27T17:14:18.024Z,79.26
2022-09-27T17:16:46.011Z,79.31
2022-09-27T17:19:14.283Z,79.48
2022-09-27T17:21:42.386Z,79.46
2022-09-27T17:24:09.679Z,79.43
2022-09-27T17:26:36.637Z,79.03
2022-09-27T17:29:07.397Z,79.85
2022-09-27T17:31:37.472Z,79.82
2022-09-27T17:34:04.561Z,79.69
2022-09-27T17:36:37.718Z,79.51
2022-09-27T17:39:05.211Z,79.81
2022-09-27T17:41:37.589Z,79.90
2022-09-27T17:44:09.643Z,79.71
2022-09-27T17:46:37.279Z,79.69
2022-09-27T17:49:23.182Z,79.61
2022-09-27T17:51:52.622Z,79.94
2022-09-27T17:54:22.685Z,79.62
2022-09-27T17:56:52.169Z,79.56
2022-09-27T17:59:18.858Z,79.41
2022-09-27T18:01:47.761Z,79.46
2022-09-27T18:04:17.108Z,79.69
2022-09-27T18:06:46.584Z,79.78
2022-09-27T18:09:16.039Z,79.80
2022-09-27T18:11:44.250Z,79.85
2022-09-27T18:14:11.228Z,79.99
2022-09-27T18:16:42.868Z,80.17
2022-09-27T18:19:17.050Z,80.33
2022-09-27T18:21:45.240Z,80.84
2022-09-27T18:24:14.071Z,80.69
2022-09-27T18:26:41.370Z,80.14
2022-09-27T18:29:11.663Z,79.90
2022-09-27T18:31:40.173Z,79.65
2022-09-27T18:34:07.667Z,79.89
2022-09-27T18:36:34.466Z,79.94
2022-09-27T18:39:04.400Z,79.99
2022-09-27T18:41:35.285Z,79.54
2022-09-27T18:44:06.496Z,80.06
2022-09-27T18:46:36.847Z,80.08
2022-09-27T18:49:06.178Z,80.23
2022-09-27T18:51:37.902Z,80.62
2022-09-27T18:56:59.917Z,80.17
2022-09-27T18:59:31.993Z,79.98
2022-09-27T19:01:58.676Z,79.59
2022-09-27T19:04:28.323Z,80.21
2022-09-27T19:06:56.541Z,80.10
2022-09-27T19:09:26.988Z,79.66
2022-09-27T19:11:53.976Z,79.64
2022-09-27T19:14:22.568Z,79.43
2022-09-27T19:16:49.613Z,79.19
2022-09-27T19:19:17.273Z,79.16
2022-09-27T19:21:44.534Z,79.28
2022-09-27T19:24:11.794Z,79.32
2022-09-27T19:26:38.593Z,79.66
2022-09-27T19:29:07.315Z,79.67
2022-09-27T19:31:38.044Z,79.55
2022-09-27T19:34:04.803Z,79.27
2022-09-27T19:36:34.150Z,79.28
2022-09-27T19:39:03.782Z,79.19
2022-09-27T19:41:31.258Z,79.45
2022-09-27T19:43:59.646Z,79.59
2022-09-27T19:46:27.017Z,79.67
2022-09-27T19:48:57.111Z,79.92
2022-09-27T19:51:26.141Z,79.62
2022-09-27T19:53:57.033Z,79.78
2022-09-27T19:56:24.284Z,79.76
2022-09-27T19:58:51.199Z,79.51
2022-09-27T20:01:23.126Z,79.49
2022-09-27T20:03:53.644Z,79.42
2022-09-27T20:06:23.721Z,79.19
2022-09-27T20:08:53.567Z,79.10
2022-09-27T20:11:23.654Z,79.47
2022-09-27T20:13:52.871Z,79.15
2022-09-27T20:16:24.580Z,78.71
2022-09-27T20:18:56.155Z,79.17
2022-09-27T20:21:35.444Z,79.21
2022-09-27T20:24:05.757Z,79.34
2022-09-27T20:26:38.010Z,79.11
2022-09-27T20:29:06.391Z,78.98
2022-09-27T20:32:01.527Z,79.05
2022-09-27T20:34:28.995Z,79.07
2022-09-27T20:36:55.919Z,79.01
2022-09-27T20:39:23.772Z,79.05
2022-09-27T20:41:51.051Z,79.15
2022-09-27T20:44:21.272Z,78.94
2022-09-27T20:46:50.279Z,79.06
2022-09-27T20:52:02.476Z,79.09
2022-09-27T20:54:29.617Z,79.01
2022-09-27T20:56:57.202Z,79.11
2022-09-27T20:59:25.259Z,78.82
2022-09-27T21:01:53.476Z,79.03
2022-09-27T21:04:27.292Z,79.25
2022-09-27T21:06:54.216Z,79.36
2022-09-27T21:09:21.245Z,79.57
2022-09-27T21:11:49.509Z,79.73
2022-09-27T21:14:17.664Z,79.66
2022-09-27T21:16:44.681Z,79.46
2022-09-27T21:19:11.600Z,79.37
2022-09-27T21:21:39.081Z,79.58
2022-09-27T21:24:06.130Z,80.15
2022-09-27T21:26:34.027Z,79.97
2022-09-27T21:29:09.533Z,79.98
2022-09-27T21:31:41.663Z,79.79
2022-09-27T21:34:08.620Z,79.78
2022-09-27T21:36:38.267Z,79.93
2022-09-27T21:39:09.661Z,79.75
2022-09-27T21:41:39.791Z,79.48
2022-09-27T21:44:09.636Z,79.67
2022-09-27T21:46:40.436Z,79.29
2022-09-27T21:49:08.174Z,79.13
2022-09-27T21:51:41.316Z,79.13
2022-09-27T21:54:11.256Z,78.96
2022-09-27T21:56:39.521Z,79.17
2022-09-27T21:59:09.511Z,79.12
2022-09-27T22:01:37.361Z,79.23
2022-09-27T22:04:09.133Z,79.09
2022-09-27T22:06:44.952Z,79.10
2022-09-27T22:09:19.133Z,79.56
2022-09-27T22:11:50.210Z,79.33
2022-09-27T22:14:18.161Z,79.14
2022-09-27T22:16:45.172Z,79.42
2022-09-27T22:19:15.479Z,79.50
2022-09-27T22:21:45.173Z,79.65
2022-09-27T22:24:15.025Z,79.77
2022-09-27T22:26:45.484Z,79.73
2022-09-27T22:29:15.581Z,79.96
2022-09-27T22:31:42.391Z,79.59
2022-09-27T22:34:20.594Z,79.67
2022-09-27T22:36:47.185Z,79.89
2022-09-27T22:39:13.938Z,79.75
2022-09-27T22:41:42.783Z,80.06
2022-09-27T22:44:09.396Z,80.00
2022-09-27T22:46:38.501Z,80.15
2022-09-27T22:49:05.092Z,80.29
2022-09-27T22:51:31.618Z,80.26
2022-09-27T22:53:58.310Z,80.67
2022-09-27T22:56:25.333Z,80.68
2022-09-27T22:58:51.971Z,80.36
2022-09-27T23:01:21.553Z,80.73
2022-09-27T23:03:55.735Z,80.71
2022-09-27T23:06:23.293Z,80.96
2022-09-27T23:08:51.297Z,81.00
2022-09-27T23:11:20.355Z,81.10
2022-09-27T23:13:48.452Z,81.21
2022-09-27T23:16:20.881Z,81.51
2022-09-27T23:18:50.335Z,81.79
2022-09-27T23:21:16.934Z,81.63
2022-09-27T23:23:45.196Z,81.90
2022-09-27T23:26:15.007Z,81.79
2022-09-27T23:28:42.356Z,81.86
2022-09-27T23:31:08.964Z,82.00
2022-09-27T23:33:43.763Z,81.70
2022-09-27T23:36:16.848Z,81.58
2022-09-27T23:38:45.607Z,81.59
2022-09-27T23:41:13.402Z,81.52
2022-09-27T23:43:40.028Z,81.58
2022-09-27T23:46:09.108Z,81.89
2022-09-27T23:48:39.879Z,81.93
2022-09-27T23:51:08.877Z,81.73
2022-09-27T23:53:36.412Z,81.69
2022-09-27T23:56:05.794Z,81.73
2022-09-27T23:58:40.527Z,81.66
